Time;durP1;ratioP1;P1;durP2;ratioP2;P2;SDS_P1;SDS_P2;PMS_P1;PMS_P2;Temp;Humidity;BMP_temperature;BMP_pressure;BME280_temperature;BME280_humidity;BME280_pressure;Samples;Min_cycle;Max_cycle;Signal;HPM_P1;HPM_P2
2021/09/11 00:01:03;;;;;;;16.75;12.32;;;18.80;99.90;;;;;;5073583;28;20044;-63
2021/09/11 00:03:30;;;;;;;19.17;12.52;;;18.80;99.90;;;;;;5074725;28;20086;-63
2021/09/11 00:05:55;;;;;;;15.88;12.52;;;18.70;99.90;;;;;;5074731;28;20032;-63
2021/09/11 00:08:21;;;;;;;15.52;11.55;;;18.70;99.90;;;;;;5074690;28;20389;-63
2021/09/11 00:10:47;;;;;;;18.38;11.98;;;18.70;99.90;;;;;;5073431;28;20521;-64
2021/09/11 00:13:13;;;;;;;15.73;12.85;;;18.70;99.90;;;;;;5074586;28;20025;-63
2021/09/11 00:15:38;;;;;;;16.48;12.65;;;18.60;99.90;;;;;;5074255;28;20452;-64
2021/09/11 00:18:05;;;;;;;20.73;11.93;;;18.70;99.90;;;;;;5072989;28;20033;-64
2021/09/11 00:20:32;;;;;;;14.40;11.48;;;18.80;99.90;;;;;;5074410;28;20033;-64
2021/09/11 00:23:00;;;;;;;15.05;10.57;;;18.80;99.90;;;;;;5074384;28;20028;-63
2021/09/11 00:25:27;;;;;;;15.90;10.82;;;18.80;99.90;;;;;;5074339;28;20500;-64
2021/09/11 00:27:53;;;;;;;18.10;11.90;;;18.90;99.90;;;;;;5074230;28;20060;-63
2021/09/11 00:30:19;;;;;;;19.90;11.95;;;18.90;99.90;;;;;;5073894;28;20086;-63
2021/09/11 00:32:45;;;;;;;14.95;11.68;;;18.90;99.90;;;;;;5074444;28;20146;-63
2021/09/11 00:35:16;;;;;;;15.23;12.18;;;18.90;99.90;;;;;;5074377;28;20032;-63
2021/09/11 00:37:43;;;;;;;14.63;11.27;;;18.90;99.90;;;;;;5073929;28;20039;-63
2021/09/11 00:40:14;;;;;;;14.55;12.30;;;19.00;99.90;;;;;;5074188;28;20028;-63
2021/09/11 00:42:46;;;;;;;15.82;12.00;;;18.90;99.90;;;;;;5074218;28;20081;-63
2021/09/11 00:45:21;;;;;;;16.45;12.10;;;18.90;99.90;;;;;;5073923;28;20036;-63
2021/09/11 00:47:47;;;;;;;14.95;12.60;;;18.90;99.90;;;;;;5074035;28;20116;-63
2021/09/11 00:50:14;;;;;;;17.15;12.65;;;18.90;99.90;;;;;;5073892;28;20024;-63
2021/09/11 00:52:42;;;;;;;19.13;11.32;;;18.90;99.90;;;;;;5073662;28;20075;-65
2021/09/11 00:55:11;;;;;;;16.58;12.60;;;18.90;99.90;;;;;;5073706;28;20024;-64
2021/09/11 00:57:45;;;;;;;16.88;12.68;;;18.80;99.90;;;;;;5073753;28;20032;-64
2021/09/11 01:00:13;;;;;;;18.05;12.93;;;18.80;99.90;;;;;;5072823;28;20024;-64
2021/09/11 01:02:39;;;;;;;15.43;11.77;;;18.80;99.90;;;;;;5073689;28;20037;-63
2021/09/11 01:05:09;;;;;;;14.43;11.23;;;18.80;99.90;;;;;;5073519;28;20485;-63
2021/09/11 01:07:45;;;;;;;12.43;10.50;;;19.00;99.90;;;;;;5072335;28;20044;-63
2021/09/11 01:10:11;;;;;;;15.63;11.85;;;19.00;99.90;;;;;;5072350;28;20060;-63
2021/09/11 01:12:39;;;;;;;13.13;10.80;;;19.10;99.90;;;;;;5073223;28;20040;-62
2021/09/11 01:15:09;;;;;;;15.88;11.13;;;19.10;99.90;;;;;;5073221;28;20098;-62
2021/09/11 01:17:35;;;;;;;13.00;10.27;;;19.10;99.90;;;;;;5073311;28;20055;-62
2021/09/11 01:20:02;;;;;;;12.80;10.10;;;19.20;99.90;;;;;;5073336;28;20445;-62
2021/09/11 01:22:28;;;;;;;13.20;10.48;;;19.30;99.90;;;;;;5073129;28;20037;-63
2021/09/11 01:25:06;;;;;;;11.75;9.55;;;19.30;99.90;;;;;;5073191;28;20027;-63
2021/09/11 01:27:32;;;;;;;14.40;9.75;;;19.30;99.90;;;;;;5073227;28;20037;-62
2021/09/11 01:30:10;;;;;;;12.73;9.75;;;19.30;99.90;;;;;;5073245;28;20086;-63
2021/09/11 01:32:36;;;;;;;14.73;10.65;;;19.30;99.90;;;;;;5073022;28;20040;-62
2021/09/11 01:35:04;;;;;;;11.52;9.23;;;19.20;99.90;;;;;;5073066;28;20021;-63
2021/09/11 01:37:29;;;;;;;11.77;9.02;;;19.20;99.90;;;;;;5072946;28;20063;-62
2021/09/11 01:39:55;;;;;;;17.10;10.07;;;19.20;99.90;;;;;;5072952;28;20124;-63
2021/09/11 01:42:24;;;;;;;13.45;10.32;;;19.00;99.90;;;;;;5072781;28;20112;-63
2021/09/11 01:45:05;;;;;;;19.95;9.50;;;19.00;99.90;;;;;;5072988;28;20035;-63
2021/09/11 01:47:31;;;;;;;11.32;9.38;;;19.00;99.90;;;;;;5072826;28;20037;-62
2021/09/11 01:49:57;;;;;;;12.82;9.80;;;18.90;99.90;;;;;;5072126;28;20111;-62
2021/09/11 01:52:23;;;;;;;13.93;9.70;;;18.80;99.90;;;;;;5072493;28;20029;-62
2021/09/11 01:54:49;;;;;;;13.35;10.40;;;18.80;99.90;;;;;;5072782;28;20032;-62
2021/09/11 01:57:16;;;;;;;12.80;9.45;;;18.80;99.90;;;;;;5072641;28;20040;-63
2021/09/11 01:59:43;;;;;;;12.60;9.63;;;18.90;99.90;;;;;;5072377;28;20032;-63
2021/09/11 02:02:09;;;;;;;11.45;9.50;;;18.90;99.90;;;;;;5072682;28;20020;-63
2021/09/11 02:04:36;;;;;;;16.10;9.32;;;18.90;99.90;;;;;;5072533;28;20059;-63
2021/09/11 02:07:04;;;;;;;12.43;9.27;;;18.90;99.90;;;;;;5072566;28;20533;-64
2021/09/11 02:09:32;;;;;;;12.77;9.27;;;18.90;99.90;;;;;;5072442;28;20102;-64
2021/09/11 02:11:58;;;;;;;11.52;9.07;;;19.00;99.90;;;;;;5072370;28;20093;-64
2021/09/11 02:14:24;;;;;;;12.38;9.05;;;18.90;99.90;;;;;;5071173;28;20024;-63
2021/09/11 02:16:51;;;;;;;13.20;9.75;;;18.90;99.90;;;;;;5070865;28;20040;-64
2021/09/11 02:19:17;;;;;;;11.43;9.57;;;18.90;99.90;;;;;;5072428;28;20094;-64
2021/09/11 02:21:42;;;;;;;9.93;8.25;;;18.90;99.90;;;;;;5071969;28;20056;-64
2021/09/11 02:24:08;;;;;;;11.82;8.38;;;18.90;99.90;;;;;;5072236;28;20032;-64
2021/09/11 02:26:35;;;;;;;10.48;8.15;;;19.00;99.90;;;;;;5071970;28;20090;-64
2021/09/11 02:29:02;;;;;;;12.45;8.65;;;18.90;99.90;;;;;;5072314;28;20546;-64
2021/09/11 02:31:28;;;;;;;11.43;9.30;;;18.80;99.90;;;;;;5072252;28;20060;-64
2021/09/11 02:33:54;;;;;;;11.20;8.00;;;18.80;99.90;;;;;;5070778;28;20578;-64
2021/09/11 02:36:20;;;;;;;10.93;8.52;;;19.00;99.90;;;;;;5072121;28;20029;-64
2021/09/11 02:38:46;;;;;;;11.02;8.48;;;18.90;99.90;;;;;;5072134;28;20042;-63
2021/09/11 02:41:13;;;;;;;11.77;8.13;;;18.90;99.90;;;;;;5071924;28;20064;-64
2021/09/11 02:43:38;;;;;;;10.75;8.10;;;19.00;99.90;;;;;;5072073;28;20110;-63
2021/09/11 02:46:04;;;;;;;14.07;8.55;;;19.00;99.90;;;;;;5072142;28;20467;-64
2021/09/11 02:48:30;;;;;;;11.10;7.88;;;19.00;99.90;;;;;;5071692;28;20032;-64
2021/09/11 02:50:57;;;;;;;9.30;7.53;;;18.90;99.90;;;;;;5072142;28;20139;-63
2021/09/11 02:53:23;;;;;;;12.52;7.97;;;18.90;99.90;;;;;;5072115;28;20039;-64
2021/09/11 02:55:49;;;;;;;12.93;7.88;;;18.90;99.90;;;;;;5070567;28;20119;-64
2021/09/11 02:58:14;;;;;;;10.25;7.90;;;18.80;99.90;;;;;;5071989;28;20095;-61
2021/09/11 03:00:40;;;;;;;11.75;8.85;;;18.80;99.90;;;;;;5073151;28;20051;-64
2021/09/11 03:03:06;;;;;;;12.02;7.38;;;18.70;99.90;;;;;;5075973;28;20031;-62
2021/09/11 03:05:32;;;;;;;10.73;8.38;;;18.70;99.90;;;;;;5075968;28;20039;-64
2021/09/11 03:07:57;;;;;;;11.88;7.95;;;18.80;99.90;;;;;;5074797;28;20029;-64
2021/09/11 03:10:23;;;;;;;11.60;8.13;;;18.80;99.90;;;;;;5075955;28;20060;-64
2021/09/11 03:12:49;;;;;;;11.13;8.40;;;18.80;99.90;;;;;;5074427;28;20031;-64
2021/09/11 03:15:15;;;;;;;15.02;8.02;;;18.80;99.90;;;;;;5075557;28;20044;-64
2021/09/11 03:17:41;;;;;;;10.30;7.63;;;18.70;99.90;;;;;;5074419;28;20069;-64
2021/09/11 03:20:07;;;;;;;14.18;9.20;;;18.60;99.90;;;;;;5075649;28;20108;-64
2021/09/11 03:22:34;;;;;;;10.45;7.95;;;18.40;99.90;;;;;;5075488;28;20545;-64
2021/09/11 03:25:00;;;;;;;12.63;8.18;;;18.50;99.90;;;;;;5075441;28;20036;-64
2021/09/11 03:27:26;;;;;;;11.63;8.07;;;18.60;99.90;;;;;;5075450;28;20032;-64
2021/09/11 03:29:52;;;;;;;10.43;8.23;;;18.60;99.90;;;;;;5075422;28;20025;-64
2021/09/11 03:32:17;;;;;;;11.82;8.48;;;18.60;99.90;;;;;;5075423;28;20036;-64
2021/09/11 03:34:43;;;;;;;10.63;7.97;;;18.60;99.90;;;;;;5075252;28;20035;-63
2021/09/11 03:37:09;;;;;;;10.02;8.07;;;18.70;99.90;;;;;;5075390;28;20389;-64
2021/09/11 03:39:35;;;;;;;11.20;7.63;;;18.70;99.90;;;;;;5075253;28;20028;-64
2021/09/11 03:42:01;;;;;;;11.65;7.65;;;18.60;99.90;;;;;;5075159;28;20024;-64
2021/09/11 03:44:27;;;;;;;11.98;7.95;;;18.60;99.90;;;;;;5075192;28;20032;-64
2021/09/11 03:46:52;;;;;;;12.63;8.10;;;18.50;99.90;;;;;;5073963;28;20127;-63
2021/09/11 03:49:18;;;;;;;11.23;6.95;;;18.40;99.90;;;;;;5075027;28;20082;-64
2021/09/11 03:51:44;;;;;;;9.73;7.15;;;18.30;99.90;;;;;;5073845;28;20067;-64
2021/09/11 03:54:09;;;;;;;14.30;8.25;;;18.20;99.90;;;;;;5075022;28;20033;-64
2021/09/11 03:56:35;;;;;;;11.13;8.43;;;18.20;99.90;;;;;;5073878;28;20037;-64
2021/09/11 03:59:01;;;;;;;12.50;8.48;;;18.10;99.90;;;;;;5075003;28;20057;-63
2021/09/11 04:01:27;;;;;;;11.98;8.10;;;18.00;99.90;;;;;;5074737;28;20432;-64
2021/09/11 04:03:52;;;;;;;10.00;7.60;;;18.10;99.90;;;;;;5073604;28;20050;-63
2021/09/11 04:06:18;;;;;;;13.68;8.07;;;18.10;99.90;;;;;;5074936;28;20032;-63
2021/09/11 04:08:44;;;;;;;12.73;8.00;;;18.20;99.90;;;;;;5073298;28;20124;-63
2021/09/11 04:11:09;;;;;;;10.60;7.43;;;18.20;99.90;;;;;;5074438;28;20146;-63
2021/09/11 04:13:35;;;;;;;11.00;7.65;;;18.30;99.90;;;;;;5073805;28;20077;-63
2021/09/11 04:16:02;;;;;;;12.77;7.90;;;18.30;99.90;;;;;;5074376;28;20045;-62
2021/09/11 04:18:27;;;;;;;12.85;7.13;;;18.30;99.90;;;;;;5074605;28;20036;-63
2021/09/11 04:20:53;;;;;;;8.55;6.93;;;18.30;99.90;;;;;;5074417;28;20489;-63
2021/09/11 04:23:19;;;;;;;9.68;6.75;;;18.30;99.90;;;;;;5090244;28;20020;-62
2021/09/11 04:25:45;;;;;;;10.15;6.95;;;18.20;99.90;;;;;;5074313;28;20078;-63
2021/09/11 04:28:11;;;;;;;11.40;7.68;;;18.30;99.90;;;;;;5074557;28;20021;-63
2021/09/11 04:30:37;;;;;;;9.55;7.15;;;18.20;99.90;;;;;;5074253;28;20128;-63
2021/09/11 04:33:03;;;;;;;8.98;6.78;;;18.30;99.90;;;;;;5073169;28;20050;-63
2021/09/11 04:35:30;;;;;;;8.80;6.95;;;18.20;99.90;;;;;;5074146;28;20035;-63
2021/09/11 04:37:59;;;;;;;9.63;7.03;;;18.10;99.90;;;;;;5074340;28;20461;-63
2021/09/11 04:40:25;;;;;;;11.55;8.25;;;18.00;99.90;;;;;;5074244;28;20028;-63
2021/09/11 04:42:53;;;;;;;11.35;7.30;;;18.00;99.90;;;;;;5089796;28;20036;-63
2021/09/11 04:45:19;;;;;;;10.10;7.10;;;17.90;99.90;;;;;;5074094;28;20060;-63
2021/09/11 04:47:45;;;;;;;11.20;7.85;;;17.90;99.90;;;;;;5074089;28;20072;-63
2021/09/11 04:50:11;;;;;;;9.40;7.50;;;17.80;99.90;;;;;;5073736;28;20028;-63
2021/09/11 04:52:36;;;;;;;9.82;7.32;;;17.70;99.90;;;;;;5073826;28;20028;-63
2021/09/11 04:55:03;;;;;;;10.10;7.95;;;17.70;99.90;;;;;;5073704;28;20025;-63
2021/09/11 04:57:29;;;;;;;11.85;7.75;;;17.50;99.90;;;;;;5073957;28;20028;-63
2021/09/11 04:59:54;;;;;;;13.50;7.55;;;17.50;99.90;;;;;;5072146;28;20446;-63
2021/09/11 05:02:20;;;;;;;11.07;8.43;;;17.50;99.90;;;;;;5073754;28;20090;-63
2021/09/11 05:04:46;;;;;;;10.00;8.05;;;17.60;99.90;;;;;;5073250;28;20123;-63
2021/09/11 05:07:11;;;;;;;12.43;8.02;;;17.40;99.90;;;;;;5073785;28;20028;-63
2021/09/11 05:09:37;;;;;;;10.93;7.90;;;17.50;99.90;;;;;;5073483;28;20408;-63
2021/09/11 05:12:04;;;;;;;13.13;7.57;;;17.60;99.90;;;;;;5073531;28;20036;-63
2021/09/11 05:14:31;;;;;;;9.73;7.03;;;17.40;99.90;;;;;;5073440;28;20028;-63
2021/09/11 05:16:58;;;;;;;11.98;7.78;;;17.40;99.90;;;;;;5073072;28;20119;-63
2021/09/11 05:19:24;;;;;;;9.77;7.75;;;17.20;99.90;;;;;;5073461;28;20040;-63
2021/09/11 05:21:50;;;;;;;10.93;7.90;;;17.20;99.90;;;;;;5073138;28;20040;-63
2021/09/11 05:24:16;;;;;;;12.07;7.97;;;17.20;99.90;;;;;;5072304;28;20111;-62
2021/09/11 05:26:44;;;;;;;11.00;8.35;;;17.20;99.90;;;;;;5073130;28;20033;-63
2021/09/11 05:29:09;;;;;;;11.63;8.88;;;17.20;99.90;;;;;;5073339;28;20120;-62
2021/09/11 05:31:35;;;;;;;10.95;8.48;;;17.30;99.90;;;;;;5073008;28;20111;-62
2021/09/11 05:34:01;;;;;;;11.20;8.13;;;17.30;99.90;;;;;;5071598;28;20032;-63
2021/09/11 05:36:27;;;;;;;12.57;9.63;;;17.30;99.90;;;;;;5071976;28;20033;-62
2021/09/11 05:38:53;;;;;;;13.52;8.15;;;17.30;99.90;;;;;;5072987;28;20025;-62
2021/09/11 05:41:19;;;;;;;11.77;8.18;;;17.30;99.90;;;;;;5073046;28;20020;-63
2021/09/11 05:43:44;;;;;;;13.20;8.40;;;17.40;99.90;;;;;;5073020;28;20036;-62
2021/09/11 05:46:10;;;;;;;17.00;8.82;;;17.40;99.90;;;;;;5071666;28;20040;-63
2021/09/11 05:48:36;;;;;;;13.95;8.23;;;17.50;99.90;;;;;;5055094;28;20051;-62
2021/09/11 05:51:02;;;;;;;12.93;8.43;;;17.60;99.90;;;;;;5072849;28;20020;-62
2021/09/11 05:53:29;;;;;;;11.30;7.50;;;17.60;99.90;;;;;;5072881;28;20036;-63
2021/09/11 05:55:54;;;;;;;10.63;8.10;;;17.70;99.90;;;;;;5072717;28;20029;-63
2021/09/11 05:58:20;;;;;;;13.48;8.25;;;17.80;99.90;;;;;;5072629;28;20033;-62
2021/09/11 06:00:46;;;;;;;10.43;7.93;;;17.90;99.90;;;;;;5072515;28;20097;-62
2021/09/11 06:03:12;;;;;;;11.07;7.45;;;18.00;99.90;;;;;;5072573;28;20044;-62
2021/09/11 06:05:38;;;;;;;13.20;8.23;;;18.00;99.90;;;;;;5072343;28;20024;-62
2021/09/11 06:08:05;;;;;;;10.77;7.28;;;18.00;99.90;;;;;;5072654;28;20035;-63
2021/09/11 06:10:30;;;;;;;9.10;7.65;;;18.10;99.90;;;;;;5072547;28;20037;-62
2021/09/11 06:12:57;;;;;;;9.57;7.75;;;18.10;99.90;;;;;;5072474;28;20035;-62
2021/09/11 06:15:23;;;;;;;11.02;7.90;;;18.00;99.90;;;;;;5071951;28;20040;-62
2021/09/11 06:17:49;;;;;;;10.63;7.80;;;18.10;99.90;;;;;;5071987;28;20067;-62
2021/09/11 06:20:15;;;;;;;9.45;7.80;;;18.10;99.90;;;;;;5071884;28;20120;-62
2021/09/11 06:22:40;;;;;;;11.80;7.82;;;18.10;99.90;;;;;;5072105;28;20483;-63
2021/09/11 06:25:07;;;;;;;10.90;8.48;;;18.10;99.90;;;;;;5072572;28;20025;-62
2021/09/11 06:27:34;;;;;;;9.35;7.30;;;18.30;99.90;;;;;;5072394;28;20060;-62
2021/09/11 06:29:59;;;;;;;11.05;7.38;;;18.50;99.90;;;;;;5072347;28;20040;-62
2021/09/11 06:32:25;;;;;;;13.50;8.10;;;18.40;99.90;;;;;;5072370;28;20047;-62
2021/09/11 06:34:51;;;;;;;9.65;7.50;;;18.30;99.90;;;;;;5071823;28;20029;-62
2021/09/11 06:37:17;;;;;;;13.55;8.07;;;18.40;99.90;;;;;;5072393;28;20044;-62
2021/09/11 06:39:43;;;;;;;12.82;7.68;;;18.60;99.90;;;;;;5072241;28;20379;-62
2021/09/11 06:42:09;;;;;;;12.05;7.22;;;18.60;99.90;;;;;;5072130;28;20079;-62
2021/09/11 06:44:34;;;;;;;12.25;7.70;;;18.70;99.90;;;;;;5072025;28;20029;-62
2021/09/11 06:47:00;;;;;;;9.65;7.03;;;18.80;99.90;;;;;;5072063;28;20135;-62
2021/09/11 06:49:26;;;;;;;10.18;6.95;;;18.90;99.90;;;;;;5072289;28;20025;-62
2021/09/11 06:51:52;;;;;;;13.98;7.35;;;18.90;99.90;;;;;;5071775;28;20483;-62
2021/09/11 06:54:17;;;;;;;10.07;6.97;;;19.00;99.90;;;;;;5078433;28;20033;-62
2021/09/11 06:56:43;;;;;;;8.80;6.38;;;19.00;99.90;;;;;;5087817;28;20052;-61
2021/09/11 06:59:09;;;;;;;8.60;6.32;;;19.00;99.90;;;;;;5089114;28;20036;-62
2021/09/11 07:01:34;;;;;;;9.93;6.78;;;19.10;99.90;;;;;;5092106;28;20469;-62
2021/09/11 07:04:00;;;;;;;8.68;6.32;;;19.10;99.90;;;;;;5092065;28;20139;-61
2021/09/11 07:06:26;;;;;;;11.98;6.70;;;19.20;99.90;;;;;;5091832;28;20434;-62
2021/09/11 07:08:52;;;;;;;10.63;6.35;;;19.20;99.90;;;;;;5092117;28;20036;-62
2021/09/11 07:11:17;;;;;;;8.88;6.50;;;19.20;99.90;;;;;;5074067;28;20469;-63
2021/09/11 07:13:43;;;;;;;8.90;6.13;;;19.30;99.90;;;;;;5082805;28;20025;-62
2021/09/11 07:16:09;;;;;;;8.57;5.20;;;19.40;99.90;;;;;;5069948;28;20033;-63
2021/09/11 07:18:36;;;;;;;11.57;6.32;;;19.60;99.90;;;;;;5071501;28;20084;-62
2021/09/11 07:21:03;;;;;;;9.65;5.57;;;19.50;99.90;;;;;;5070233;28;20442;-63
2021/09/11 07:23:33;;;;;;;12.98;5.80;;;19.50;99.90;;;;;;5070124;28;20111;-62
2021/09/11 07:25:59;;;;;;;8.33;4.87;;;19.50;99.90;;;;;;5087229;28;20028;-62
2021/09/11 07:28:27;;;;;;;6.90;5.20;;;19.40;99.90;;;;;;5071676;28;20033;-62
2021/09/11 07:30:53;;;;;;;6.80;5.30;;;19.50;99.90;;;;;;5071563;28;20028;-62
2021/09/11 07:33:19;;;;;;;7.50;5.43;;;19.40;99.90;;;;;;5071403;28;20038;-62
2021/09/11 07:35:45;;;;;;;8.85;5.70;;;19.50;99.90;;;;;;5071498;28;20082;-63
2021/09/11 07:38:13;;;;;;;7.88;5.10;;;19.60;99.90;;;;;;5071092;28;20371;-63
2021/09/11 07:40:38;;;;;;;6.85;4.68;;;19.70;99.90;;;;;;5071725;28;20427;-61
2021/09/11 07:43:05;;;;;;;8.18;4.80;;;19.50;99.90;;;;;;5071366;28;20036;-63
2021/09/11 07:45:33;;;;;;;8.15;5.22;;;19.50;99.90;;;;;;5070666;28;20056;-66
2021/09/11 07:47:59;;;;;;;8.90;5.13;;;19.60;99.90;;;;;;5093163;28;20024;-63
2021/09/11 07:50:28;;;;;;;8.20;5.05;;;19.60;99.90;;;;;;5077242;28;20039;-66
2021/09/11 07:52:54;;;;;;;10.30;5.10;;;19.70;99.90;;;;;;5093450;28;20658;-65
2021/09/11 07:55:20;;;;;;;7.93;5.30;;;19.80;99.90;;;;;;5094925;28;20131;-64
2021/09/11 07:57:46;;;;;;;8.15;4.38;;;20.00;99.90;;;;;;5093447;28;20036;-65
2021/09/11 08:00:12;;;;;;;6.28;4.82;;;20.10;99.90;;;;;;5093622;28;20119;-66
2021/09/11 08:02:38;;;;;;;6.70;4.82;;;19.90;99.90;;;;;;5095179;28;20027;-68
2021/09/11 08:05:04;;;;;;;6.97;5.38;;;19.90;99.90;;;;;;5094971;28;20024;-68
2021/09/11 08:07:30;;;;;;;10.25;5.18;;;19.90;99.90;;;;;;5094978;28;20031;-70
2021/09/11 08:09:56;;;;;;;7.90;5.40;;;20.10;99.90;;;;;;5094545;28;20032;-69
2021/09/11 08:12:22;;;;;;;8.77;4.80;;;20.40;99.90;;;;;;5094836;28;20038;-69
2021/09/11 08:14:48;;;;;;;12.35;5.82;;;20.60;99.90;;;;;;5094540;28;20114;-68
2021/09/11 08:17:14;;;;;;;9.93;5.10;;;20.40;99.90;;;;;;5079816;28;20115;-69
2021/09/11 08:19:40;;;;;;;8.32;4.80;;;20.70;99.90;;;;;;5074472;28;20058;-69
2021/09/11 08:22:06;;;;;;;6.30;4.15;;;21.00;99.90;;;;;;5074350;28;20037;-68
2021/09/11 08:24:31;;;;;;;7.00;3.83;;;21.00;99.90;;;;;;5074303;28;20032;-69
2021/09/11 08:26:57;;;;;;;6.53;4.32;;;20.90;99.90;;;;;;5072833;28;20032;-69
2021/09/11 08:29:23;;;;;;;9.43;4.90;;;20.60;99.90;;;;;;5074086;28;20112;-71
2021/09/11 08:31:49;;;;;;;7.10;4.35;;;20.70;99.90;;;;;;5072495;28;20082;-68
2021/09/11 08:34:15;;;;;;;6.32;4.32;;;20.40;99.90;;;;;;5073909;28;20032;-68
2021/09/11 08:36:40;;;;;;;8.70;4.70;;;20.70;99.90;;;;;;5074245;28;20029;-70
2021/09/11 08:39:07;;;;;;;8.15;4.65;;;20.70;99.90;;;;;;5073867;28;20549;-74
2021/09/11 08:41:33;;;;;;;7.50;4.32;;;20.70;99.90;;;;;;5073993;28;20442;-64
2021/09/11 08:44:01;;;;;;;7.57;3.83;;;20.60;99.90;;;;;;5073831;28;20473;-66
2021/09/11 08:46:30;;;;;;;6.10;3.80;;;20.60;99.90;;;;;;5080992;28;20089;-57
2021/09/11 08:48:57;;;;;;;7.90;4.65;;;20.50;99.90;;;;;;5094108;28;20047;-68
2021/09/11 08:51:25;;;;;;;6.70;4.10;;;20.60;99.90;;;;;;5093881;28;20040;-62
2021/09/11 08:53:51;;;;;;;6.05;3.97;;;20.50;99.90;;;;;;5093807;28;20028;-67
2021/09/11 08:56:17;;;;;;;9.18;4.88;;;20.60;99.90;;;;;;5093934;28;20073;-68
2021/09/11 08:58:46;;;;;;;8.40;4.50;;;20.60;99.90;;;;;;5093781;28;20497;-67
2021/09/11 09:01:12;;;;;;;5.90;4.18;;;20.50;99.90;;;;;;5093471;28;20495;-66
2021/09/11 09:03:43;;;;;;;6.78;4.30;;;20.60;99.90;;;;;;5093925;28;20032;-66
2021/09/11 09:06:27;;;;;;;5.88;4.38;;;20.30;99.90;;;;;;5090493;28;20032;-66
2021/09/11 09:08:55;;;;;;;7.40;4.35;;;20.40;99.90;;;;;;5078899;28;20032;-67
2021/09/11 09:11:22;;;;;;;8.57;4.47;;;20.60;99.90;;;;;;5073520;28;20115;-66
2021/09/11 09:13:57;;;;;;;5.97;4.45;;;20.70;99.90;;;;;;5072816;28;20048;-67
2021/09/11 09:16:27;;;;;;;10.20;6.03;;;20.80;99.90;;;;;;5072951;28;20041;-66
2021/09/11 09:18:54;;;;;;;6.57;4.07;;;21.00;99.90;;;;;;5073114;28;20135;-78
2021/09/11 09:21:29;;;;;;;6.05;3.92;;;21.10;99.90;;;;;;5072026;28;20040;-63
2021/09/11 09:24:02;;;;;;;9.20;4.55;;;21.20;99.90;;;;;;5072866;28;20501;-68
2021/09/11 09:26:29;;;;;;;4.68;3.30;;;20.90;99.90;;;;;;5073162;28;20031;-65
2021/09/11 09:29:16;;;;;;;5.75;3.75;;;20.90;99.90;;;;;;5072900;28;20532;-67
2021/09/11 09:31:44;;;;;;;5.50;3.63;;;20.80;99.90;;;;;;5073099;28;20105;-71
2021/09/11 09:34:10;;;;;;;5.75;3.70;;;20.90;99.90;;;;;;5072648;28;20032;-69
2021/09/11 09:36:41;;;;;;;7.50;3.50;;;21.00;99.90;;;;;;5072994;28;20381;-66
2021/09/11 09:39:10;;;;;;;5.18;3.80;;;21.00;99.90;;;;;;5072671;28;20473;-72
2021/09/11 09:41:51;;;;;;;6.07;3.38;;;21.00;99.90;;;;;;5064424;28;20496;-70
2021/09/11 09:44:21;;;;;;;6.97;4.13;;;21.00;99.90;;;;;;5072699;28;20060;-69
2021/09/11 09:46:49;;;;;;;6.32;3.65;;;21.20;99.90;;;;;;5072897;28;20377;-71
2021/09/11 09:49:27;;;;;;;6.18;4.05;;;21.20;99.90;;;;;;5072614;28;20032;-69
2021/09/11 09:51:53;;;;;;;6.93;3.83;;;21.30;99.90;;;;;;5072531;28;20033;-71
2021/09/11 09:54:20;;;;;;;4.35;3.33;;;21.30;99.90;;;;;;5072223;28;20054;-70
2021/09/11 09:56:46;;;;;;;9.70;3.85;;;21.30;99.90;;;;;;5072657;28;20034;-70
2021/09/11 09:59:13;;;;;;;6.03;3.67;;;21.20;99.90;;;;;;5072427;28;20094;-70
2021/09/11 10:01:39;;;;;;;8.13;3.90;;;21.30;99.90;;;;;;5072683;28;20043;-72
2021/09/11 10:04:22;;;;;;;5.95;3.70;;;21.50;99.90;;;;;;5072360;28;20528;-70
2021/09/11 10:06:59;;;;;;;5.65;3.78;;;21.60;99.90;;;;;;5071467;28;20033;-70
2021/09/11 10:09:28;;;;;;;8.00;3.55;;;21.70;99.90;;;;;;5070688;28;20147;-71
2021/09/11 10:11:54;;;;;;;5.68;3.33;;;21.80;99.90;;;;;;5070752;28;20025;-70
2021/09/11 10:14:33;;;;;;;4.70;3.58;;;22.00;99.90;;;;;;5078387;28;20024;-70
2021/09/11 10:17:05;;;;;;;5.30;3.08;;;22.20;99.90;;;;;;5091028;28;20040;-67
2021/09/11 10:19:42;;;;;;;5.63;3.40;;;22.40;99.90;;;;;;5092507;28;20036;-68
2021/09/11 10:22:25;;;;;;;5.32;4.07;;;22.60;99.90;;;;;;5091177;28;20020;-69
2021/09/11 10:25:05;;;;;;;10.07;4.10;;;22.90;99.90;;;;;;5092291;28;20039;-70
2021/09/11 10:27:38;;;;;;;5.00;3.55;;;23.30;99.90;;;;;;5092719;28;20064;-71
2021/09/11 10:30:14;;;;;;;5.95;3.45;;;23.10;99.90;;;;;;5091929;28;20447;-73
2021/09/11 10:32:48;;;;;;;7.95;3.70;;;22.90;99.90;;;;;;5081623;28;20035;-71
2021/09/11 10:35:22;;;;;;;5.85;3.30;;;22.90;99.90;;;;;;5072028;28;20508;-72
2021/09/11 10:37:52;;;;;;;4.38;3.35;;;22.70;99.90;;;;;;5072191;28;20029;-72
2021/09/11 10:40:27;;;;;;;5.80;3.13;;;22.60;99.90;;;;;;5071818;28;20483;-73
2021/09/11 10:43:24;;;;;;;4.68;2.88;;;22.60;99.90;;;;;;5072144;28;20348;-73
2021/09/11 10:46:01;;;;;;;5.55;3.47;;;22.50;99.90;;;;;;5072118;28;20060;-74
2021/09/11 10:48:51;;;;;;;6.60;3.20;;;22.60;99.90;;;;;;5072128;28;20037;-72
2021/09/11 10:51:30;;;;;;;5.47;2.85;;;22.50;99.90;;;;;;5071505;28;20024;-73
2021/09/11 10:54:14;;;;;;;5.30;2.88;;;22.50;99.90;;;;;;5071660;28;20041;-72
2021/09/11 10:57:02;;;;;;;5.38;3.35;;;22.70;99.90;;;;;;5087278;28;20120;-75
2021/09/11 10:59:35;;;;;;;4.60;2.83;;;22.90;99.90;;;;;;5070905;28;20462;-76
2021/09/11 11:02:30;;;;;;;3.97;3.10;;;22.80;99.90;;;;;;5071928;28;20074;-72
2021/09/11 11:05:02;;;;;;;5.63;2.92;;;22.90;99.90;;;;;;5074282;28;20032;-73
2021/09/11 11:07:31;;;;;;;4.55;3.13;;;23.00;99.90;;;;;;5071535;28;20497;-73
2021/09/11 11:09:59;;;;;;;4.05;2.67;;;23.20;99.90;;;;;;5071502;28;20036;-65
2021/09/11 11:12:32;;;;;;;6.70;2.70;;;23.20;99.90;;;;;;5071728;28;20036;-66
2021/09/11 11:15:03;;;;;;;6.55;3.10;;;23.10;99.90;;;;;;5071350;28;20036;-66
2021/09/11 11:17:30;;;;;;;7.05;3.28;;;22.70;99.90;;;;;;5071736;28;20105;-67
2021/09/11 11:19:58;;;;;;;4.03;2.88;;;22.80;99.90;;;;;;5070261;28;20113;-67
2021/09/11 11:22:38;;;;;;;4.22;2.58;;;22.90;99.90;;;;;;5073730;28;20435;-65
2021/09/11 11:25:33;;;;;;;5.55;2.95;;;22.90;99.90;;;;;;5083513;28;20034;-65
2021/09/11 11:28:00;;;;;;;6.07;3.97;;;22.80;99.90;;;;;;5087868;28;20044;-66
2021/09/11 11:30:26;;;;;;;5.85;2.85;;;23.10;99.90;;;;;;5094893;28;20043;-65
2021/09/11 11:32:52;;;;;;;4.80;3.10;;;23.20;99.90;;;;;;5095509;28;20377;-67
2021/09/11 11:35:18;;;;;;;4.13;2.90;;;23.50;99.90;;;;;;5095045;28;20377;-66
2021/09/11 11:37:44;;;;;;;5.20;3.00;;;23.60;99.90;;;;;;5094112;28;20035;-67
2021/09/11 11:40:14;;;;;;;4.85;2.83;;;23.80;99.90;;;;;;5095066;28;20039;-63
2021/09/11 11:42:42;;;;;;;5.82;3.33;;;24.00;99.90;;;;;;5095377;28;20032;-66
2021/09/11 11:45:12;;;;;;;6.15;2.63;;;24.40;99.90;;;;;;5095153;28;20078;-66
2021/09/11 11:48:12;;;;;;;5.10;2.90;;;24.60;99.90;;;;;;5095345;28;20032;-67
2021/09/11 11:50:43;;;;;;;5.57;2.92;;;24.80;99.90;;;;;;5091556;28;20032;-68
2021/09/11 11:53:13;;;;;;;6.93;3.05;;;24.80;99.90;;;;;;5084569;28;20512;-66
2021/09/11 11:55:52;;;;;;;5.00;3.20;;;25.00;99.90;;;;;;5078716;28;20029;-69
2021/09/11 11:58:27;;;;;;;7.43;2.63;;;25.10;99.90;;;;;;5074598;28;20025;-67
2021/09/11 12:00:58;;;;;;;4.40;2.78;;;25.20;99.90;;;;;;5074886;28;20033;-63
2021/09/11 12:03:45;;;;;;;5.07;3.03;;;25.40;99.90;;;;;;5074628;28;20381;-65
2021/09/11 12:06:27;;;;;;;9.07;4.28;;;24.90;99.90;;;;;;5076588;28;20074;-66
2021/09/11 12:09:00;;;;;;;4.43;3.05;;;25.50;99.90;;;;;;5094925;28;20024;-67
2021/09/11 12:11:27;;;;;;;4.28;3.00;;;25.90;99.90;;;;;;5093376;28;20039;-67
2021/09/11 12:13:59;;;;;;;4.65;2.75;;;26.30;99.90;;;;;;5094882;28;20040;-68
2021/09/11 12:16:26;;;;;;;4.15;2.50;;;27.10;99.90;;;;;;5094248;28;20101;-69
2021/09/11 12:18:53;;;;;;;3.97;2.40;;;27.70;99.30;;;;;;5094742;28;20035;-70
2021/09/11 12:21:19;;;;;;;3.60;2.20;;;27.90;98.50;;;;;;5094417;28;20508;-67
2021/09/11 12:23:52;;;;;;;3.88;1.98;;;28.30;97.90;;;;;;5094595;28;20079;-67
2021/09/11 12:26:33;;;;;;;3.25;2.05;;;29.50;95.90;;;;;;5075409;28;20149;-70
2021/09/11 12:29:06;;;;;;;;;;;30.20;93.70;;;;;;5074663;28;20040;-67
2021/09/11 12:31:39;;;;;;;7.07;2.60;;;29.30;94.30;;;;;;5074016;28;19909;-68
2021/09/11 12:34:17;;;;;;;3.30;2.20;;;29.30;94.70;;;;;;5073379;28;20470;-66
2021/09/11 12:36:47;;;;;;;3.30;2.20;;;29.00;94.10;;;;;;5073312;28;20406;-67
2021/09/11 12:39:35;;;;;;;8.45;4.65;;;29.40;94.30;;;;;;5074135;28;20105;-67
2021/09/11 12:42:10;;;;;;;5.55;2.42;;;28.60;96.10;;;;;;5072690;28;20039;-65
2021/09/11 12:44:38;;;;;;;3.55;2.08;;;28.90;93.90;;;;;;5074130;28;20039;-67
2021/09/11 12:47:09;;;;;;;3.72;1.90;;;27.90;95.70;;;;;;5073577;28;20036;-61